This is the latest recevied weather packets stored in our database for station/object 9W4GWK-G. If no packets are shown the sender has not sent any weather packets the latest 10 day(s).
| Time | Temp. | Humidity | Pressure | Rain* | Wind** | Luminosity | Snow |
|---|---|---|---|---|---|---|---|
| 1777525290 | 33.33° C | 61% | 1010.3 hPa | - | - | - | - |
| 1777524388 | 33.33° C | 62% | 1010.6 hPa | - | - | - | - |
| 1777523486 | 33.33° C | 62% | 1010.8 hPa | - | - | - | - |
| 1777522584 | 32.78° C | 62% | 1011.1 hPa | - | - | - | - |
| 1777521682 | 32.78° C | 63% | 1011.4 hPa | - | - | - | - |
| 1777520780 | 32.78° C | 63% | 1011.6 hPa | - | - | - | - |
| 1777519878 | 32.78° C | 64% | 1011.6 hPa | - | - | - | - |
| 1777518977 | 32.22° C | 64% | 1011.6 hPa | - | - | - | - |
| 1777518075 | 32.22° C | 64% | 1011.6 hPa | - | - | - | - |
| 1777517172 | 32.22° C | 64% | 1011.7 hPa | - | - | - | - |
| 1777516270 | 32.22° C | 65% | 1011.6 hPa | - | - | - | - |
| 1777515368 | 32.22° C | 65% | 1011.5 hPa | - | - | - | - |
| 1777514466 | 32.22° C | 65% | 1011.5 hPa | - | - | - | - |
| 1777513564 | 32.22° C | 65% | 1011.3 hPa | - | - | - | - |
| 1777512662 | 31.67° C | 65% | 1011.3 hPa | - | - | - | - |
| 1777511760 | 31.67° C | 65% | 1011.2 hPa | - | - | - | - |
| 1777510858 | 31.67° C | 66% | 1011.1 hPa | - | - | - | - |
| 1777509956 | 31.67° C | 66% | 1010.8 hPa | - | - | - | - |
| 1777508151 | 31.67° C | 66% | 1010.7 hPa | - | - | - | - |
| 1777507249 | 31.67° C | 65% | 1010.5 hPa | - | - | - | - |
| 1777506347 | 31.11° C | 67% | 1010.3 hPa | - | - | - | - |
| 1777485598 | 30° C | 63% | 1011 hPa | - | - | - | - |
| 1777484696 | 29.44° C | 63% | 1011.1 hPa | - | - | - | - |
| 1777483793 | 29.44° C | 62% | 1011.3 hPa | - | - | - | - |
| 1777480184 | 28.33° C | 41% | 1011.3 hPa | - | - | - | - |
* Rain since midnight (hover to see other rain measurements)
** Current wind speed in m/s (hover to see current wind gust speed)